Time,TemperatureF,DewpointF,PressureIn,WindDirection,WindDirectionDegrees,WindSpeedMPH,WindSpeedGustMPH,Humidity,HourlyPrecipIn,Conditions,Clouds,dailyrainin,SoftwareType,DateUTC
2013-02-10 00:00:00,46.0,46.0,30.31,NNE,30,6.0,8.0,100,-99.99,,,-99.99,,2013-02-10 08:00:00,
2013-02-10 00:21:00,46.0,46.0,30.31,NNE,30,6.0,8.0,100,-99.99,,,-99.99,,2013-02-10 08:21:00,
2013-02-10 00:31:00,46.0,46.0,30.31,NNE,30,6.0,8.0,100,-99.99,,,-99.99,,2013-02-10 08:31:00,
2013-02-10 00:42:00,46.0,46.0,30.31,NNE,30,6.0,8.0,100,-99.99,,,-99.99,,2013-02-10 08:42:00,
2013-02-10 00:52:00,46.0,46.0,30.31,NNE,30,6.0,8.0,100,-99.99,,,-99.99,,2013-02-10 08:52:00,
2013-02-10 01:00:00,46.0,46.0,30.31,NNE,20,6.0,7.0,100,-99.99,,,-99.99,,2013-02-10 09:00:00,
2013-02-10 01:11:00,46.0,46.0,30.31,NNE,20,6.0,7.0,100,-99.99,,,-99.99,,2013-02-10 09:11:00,
2013-02-10 01:21:00,46.0,46.0,30.31,NNE,20,6.0,7.0,100,-99.99,,,-99.99,,2013-02-10 09:21:00,
2013-02-10 01:31:00,46.0,46.0,30.31,NNE,20,6.0,7.0,100,-99.99,,,-99.99,,2013-02-10 09:31:00,
2013-02-10 01:41:00,46.0,46.0,30.31,NNE,20,6.0,7.0,100,-99.99,,,-99.99,,2013-02-10 09:41:00,
2013-02-10 01:51:00,46.0,46.0,30.31,NNE,20,6.0,7.0,100,-99.99,,,-99.99,,2013-02-10 09:51:00,
2013-02-10 02:00:00,47.0,47.0,30.31,North,350,9.0,9.0,100,-99.99,,,-99.99,,2013-02-10 10:00:00,
2013-02-10 02:21:00,47.0,47.0,30.31,North,350,9.0,9.0,100,-99.99,,,-99.99,,2013-02-10 10:21:00,
2013-02-10 02:31:00,47.0,47.0,30.31,North,350,9.0,9.0,100,-99.99,,,-99.99,,2013-02-10 10:31:00,
2013-02-10 02:41:00,47.0,47.0,30.31,North,350,9.0,9.0,100,-99.99,,,-99.99,,2013-02-10 10:41:00,
2013-02-10 02:51:00,47.0,47.0,30.31,North,350,9.0,9.0,100,-99.99,,,-99.99,,2013-02-10 10:51:00,
2013-02-10 03:00:00,45.0,45.0,30.32,NE,50,2.0,3.0,100,-99.99,,,-99.99,,2013-02-10 11:00:00,
2013-02-10 03:21:00,45.0,45.0,30.32,NE,50,2.0,3.0,100,-99.99,,,-99.99,,2013-02-10 11:21:00,
2013-02-10 03:31:00,45.0,45.0,30.32,NE,50,2.0,3.0,100,-99.99,,,-99.99,,2013-02-10 11:31:00,
2013-02-10 03:41:00,45.0,45.0,30.32,NE,50,2.0,3.0,100,-99.99,,,-99.99,,2013-02-10 11:41:00,
2013-02-10 03:52:00,45.0,45.0,30.32,NE,50,2.0,3.0,100,-99.99,,,-99.99,,2013-02-10 11:52:00,
2013-02-10 04:00:00,45.0,45.0,30.32,East,80,5.0,5.0,100,-99.99,,,-99.99,,2013-02-10 12:00:00,
2013-02-10 04:21:00,45.0,45.0,30.32,East,80,5.0,5.0,100,-99.99,,,-99.99,,2013-02-10 12:21:00,
2013-02-10 04:31:00,45.0,45.0,30.32,East,80,5.0,5.0,100,-99.99,,,-99.99,,2013-02-10 12:31:00,
2013-02-10 04:41:00,45.0,45.0,30.32,East,80,5.0,5.0,100,-99.99,,,-99.99,,2013-02-10 12:41:00,
2013-02-10 04:52:00,45.0,45.0,30.32,East,80,5.0,5.0,100,-99.99,,,-99.99,,2013-02-10 12:52:00,
2013-02-10 05:00:00,45.0,45.0,30.32,NE,40,2.0,3.0,100,-99.99,,,-99.99,,2013-02-10 13:00:00,
2013-02-10 05:21:00,45.0,45.0,30.32,NE,40,2.0,3.0,100,-99.99,,,-99.99,,2013-02-10 13:21:00,
2013-02-10 05:31:00,45.0,45.0,30.32,NE,40,2.0,3.0,100,-99.99,,,-99.99,,2013-02-10 13:31:00,
2013-02-10 05:41:00,45.0,45.0,30.32,NE,40,2.0,3.0,100,-99.99,,,-99.99,,2013-02-10 13:41:00,
2013-02-10 05:51:00,45.0,45.0,30.32,NE,40,2.0,3.0,100,-99.99,,,-99.99,,2013-02-10 13:51:00,
2013-02-10 06:00:00,44.0,44.0,30.33,East,80,3.0,3.0,100,-99.99,,,-99.99,,2013-02-10 14:00:00,
2013-02-10 06:21:00,44.0,44.0,30.33,East,80,3.0,3.0,100,-99.99,,,-99.99,,2013-02-10 14:21:00,
2013-02-10 06:31:00,44.0,44.0,30.33,East,80,3.0,3.0,100,-99.99,,,-99.99,,2013-02-10 14:31:00,
2013-02-10 06:41:00,44.0,44.0,30.33,East,80,3.0,3.0,100,-99.99,,,-99.99,,2013-02-10 14:41:00,
2013-02-10 06:51:00,44.0,44.0,30.33,East,80,3.0,3.0,100,-99.99,,,-99.99,,2013-02-10 14:51:00,
2013-02-10 07:00:00,44.0,44.0,30.33,ENE,70,3.0,3.0,100,-99.99,,,-99.99,,2013-02-10 15:00:00,
2013-02-10 07:21:00,44.0,44.0,30.33,ENE,70,3.0,3.0,100,-99.99,,,-99.99,,2013-02-10 15:21:00,
2013-02-10 07:31:00,44.0,44.0,30.33,ENE,70,3.0,3.0,100,-99.99,,,-99.99,,2013-02-10 15:31:00,
2013-02-10 07:41:00,44.0,44.0,30.33,ENE,70,3.0,3.0,100,-99.99,,,-99.99,,2013-02-10 15:41:00,
2013-02-10 07:51:00,44.0,44.0,30.33,ENE,70,3.0,3.0,100,-99.99,,,-99.99,,2013-02-10 15:51:00,
2013-02-10 08:00:00,44.0,44.0,30.34,ENE,70,3.0,5.0,100,-99.99,,,-99.99,,2013-02-10 16:00:00,
2013-02-10 08:21:00,44.0,44.0,30.34,ENE,70,3.0,5.0,100,-99.99,,,-99.99,,2013-02-10 16:21:00,
2013-02-10 08:31:00,44.0,44.0,30.34,ENE,70,3.0,5.0,100,-99.99,,,-99.99,,2013-02-10 16:31:00,
2013-02-10 08:41:00,44.0,44.0,30.34,ENE,70,3.0,5.0,100,-99.99,,,-99.99,,2013-02-10 16:41:00,
2013-02-10 08:51:00,44.0,44.0,30.34,ENE,70,3.0,5.0,100,-99.99,,,-99.99,,2013-02-10 16:51:00,
2013-02-10 09:00:00,44.0,44.0,30.35,East,80,3.0,6.0,100,-99.99,,,-99.99,,2013-02-10 17:00:00,
2013-02-10 09:21:00,44.0,44.0,30.35,East,80,3.0,6.0,100,-99.99,,,-99.99,,2013-02-10 17:21:00,
2013-02-10 09:31:00,44.0,44.0,30.35,East,80,3.0,6.0,100,-99.99,,,-99.99,,2013-02-10 17:31:00,
2013-02-10 09:41:00,44.0,44.0,30.35,East,80,3.0,6.0,100,-99.99,,,-99.99,,2013-02-10 17:41:00,
2013-02-10 09:52:00,44.0,44.0,30.35,East,80,3.0,6.0,100,-99.99,,,-99.99,,2013-02-10 17:52:00,
2013-02-10 10:00:00,45.0,45.0,30.35,East,90,3.0,5.0,100,-99.99,,,-99.99,,2013-02-10 18:00:00,
2013-02-10 10:11:00,45.0,45.0,30.35,East,90,3.0,5.0,100,-99.99,,,-99.99,,2013-02-10 18:11:00,
2013-02-10 10:21:00,45.0,45.0,30.35,East,90,3.0,5.0,100,-99.99,,,-99.99,,2013-02-10 18:21:00,
2013-02-10 10:31:00,45.0,45.0,30.35,East,90,3.0,5.0,100,-99.99,,,-99.99,,2013-02-10 18:31:00,
2013-02-10 10:41:00,45.0,45.0,30.35,East,90,3.0,5.0,100,-99.99,,,-99.99,,2013-02-10 18:41:00,
2013-02-10 10:51:00,45.0,45.0,30.35,East,90,3.0,5.0,100,-99.99,,,-99.99,,2013-02-10 18:51:00,
2013-02-10 11:00:00,47.0,47.0,30.35,North,0,0.0,1.0,100,-99.99,,,-99.99,,2013-02-10 19:00:00,
2013-02-10 11:11:00,47.0,47.0,30.35,North,0,0.0,1.0,100,-99.99,,,-99.99,,2013-02-10 19:11:00,
2013-02-10 11:21:00,47.0,47.0,30.35,North,0,0.0,1.0,100,-99.99,,,-99.99,,2013-02-10 19:21:00,
2013-02-10 11:31:00,47.0,47.0,30.35,North,0,0.0,1.0,100,-99.99,,,-99.99,,2013-02-10 19:31:00,
2013-02-10 11:42:00,47.0,47.0,30.35,North,0,0.0,1.0,100,-99.99,,,-99.99,,2013-02-10 19:42:00,
2013-02-10 11:51:00,47.0,47.0,30.35,North,0,0.0,1.0,100,-99.99,,,-99.99,,2013-02-10 19:51:00,
2013-02-10 12:00:00,47.0,46.0,30.35,NNW,340,7.0,8.0,97,-99.99,,,-99.99,,2013-02-10 20:00:00,
2013-02-10 12:21:00,47.0,46.0,30.35,NNW,340,7.0,8.0,97,-99.99,,,-99.99,,2013-02-10 20:21:00,
2013-02-10 12:31:00,47.0,46.0,30.35,NNW,340,7.0,8.0,97,-99.99,,,-99.99,,2013-02-10 20:31:00,
2013-02-10 12:41:00,47.0,46.0,30.35,NNW,340,7.0,8.0,97,-99.99,,,-99.99,,2013-02-10 20:41:00,
2013-02-10 12:52:00,47.0,46.0,30.35,NNW,340,7.0,8.0,97,-99.99,,,-99.99,,2013-02-10 20:52:00,
2013-02-10 13:00:00,48.0,43.0,30.33,North,360,11.0,13.0,82,-99.99,,,-99.99,,2013-02-10 21:00:00,
2013-02-10 13:11:00,48.0,43.0,30.33,North,360,11.0,13.0,82,-99.99,,,-99.99,,2013-02-10 21:11:00,
2013-02-10 13:21:00,48.0,43.0,30.33,North,360,11.0,13.0,82,-99.99,,,-99.99,,2013-02-10 21:21:00,
2013-02-10 13:31:00,48.0,43.0,30.33,North,360,11.0,13.0,82,-99.99,,,-99.99,,2013-02-10 21:31:00,
2013-02-10 13:41:00,48.0,43.0,30.33,North,360,11.0,13.0,82,-99.99,,,-99.99,,2013-02-10 21:41:00,
2013-02-10 13:51:00,48.0,43.0,30.33,North,360,11.0,13.0,82,-99.99,,,-99.99,,2013-02-10 21:51:00,
2013-02-10 14:00:00,47.0,42.0,30.32,NNW,340,13.0,15.0,82,-99.99,,,-99.99,,2013-02-10 22:00:00,
2013-02-10 14:21:00,47.0,42.0,30.32,NNW,340,13.0,15.0,82,-99.99,,,-99.99,,2013-02-10 22:21:00,
2013-02-10 14:31:00,47.0,42.0,30.32,NNW,340,13.0,15.0,82,-99.99,,,-99.99,,2013-02-10 22:31:00,
2013-02-10 14:41:00,47.0,42.0,30.32,NNW,340,13.0,15.0,82,-99.99,,,-99.99,,2013-02-10 22:41:00,
2013-02-10 14:52:00,47.0,42.0,30.32,NNW,340,13.0,15.0,82,-99.99,,,-99.99,,2013-02-10 22:52:00,
2013-02-10 15:00:00,47.0,44.0,30.32,NNW,340,13.0,14.0,88,-99.99,,,-99.99,,2013-02-10 23:00:00,
2013-02-10 15:21:00,47.0,44.0,30.32,NNW,340,13.0,14.0,88,-99.99,,,-99.99,,2013-02-10 23:21:00,
2013-02-10 15:31:00,47.0,44.0,30.32,NNW,340,13.0,14.0,88,-99.99,,,-99.99,,2013-02-10 23:31:00,
2013-02-10 15:41:00,47.0,44.0,30.32,NNW,340,13.0,14.0,88,-99.99,,,-99.99,,2013-02-10 23:41:00,
2013-02-10 15:52:00,47.0,44.0,30.32,NNW,340,13.0,14.0,88,-99.99,,,-99.99,,2013-02-10 23:52:00,
2013-02-10 16:00:00,47.0,43.0,30.32,North,350,14.0,16.0,83,-99.99,,,-99.99,,2013-02-11 00:00:00,
2013-02-10 16:11:00,47.0,43.0,30.32,North,350,14.0,16.0,83,-99.99,,,-99.99,,2013-02-11 00:11:00,
2013-02-10 16:21:00,47.0,43.0,30.32,North,350,14.0,16.0,83,-99.99,,,-99.99,,2013-02-11 00:21:00,
2013-02-10 16:31:00,47.0,43.0,30.32,North,350,14.0,16.0,83,-99.99,,,-99.99,,2013-02-11 00:31:00,
2013-02-10 16:41:00,47.0,43.0,30.32,North,350,14.0,16.0,83,-99.99,,,-99.99,,2013-02-11 00:41:00,
2013-02-10 16:51:00,47.0,43.0,30.32,North,350,14.0,16.0,83,-99.99,,,-99.99,,2013-02-11 00:51:00,
2013-02-10 17:00:00,47.0,42.0,30.33,North,350,17.0,21.0,82,-99.99,,,-99.99,,2013-02-11 01:00:00,
2013-02-10 17:21:00,47.0,42.0,30.33,North,350,17.0,21.0,82,-99.99,,,-99.99,,2013-02-11 01:21:00,
2013-02-10 17:31:00,47.0,42.0,30.33,North,350,17.0,21.0,82,-99.99,,,-99.99,,2013-02-11 01:31:00,
2013-02-10 17:41:00,47.0,42.0,30.33,North,350,17.0,21.0,82,-99.99,,,-99.99,,2013-02-11 01:41:00,
2013-02-10 17:51:00,47.0,42.0,30.33,North,350,17.0,21.0,82,-99.99,,,-99.99,,2013-02-11 01:51:00,
2013-02-10 18:00:00,47.0,41.0,30.33,North,360,14.0,16.0,79,-99.99,,,-99.99,,2013-02-11 02:00:00,
2013-02-10 18:11:00,47.0,41.0,30.33,North,360,14.0,16.0,79,-99.99,,,-99.99,,2013-02-11 02:11:00,
2013-02-10 18:21:00,47.0,41.0,30.33,North,360,14.0,16.0,79,-99.99,,,-99.99,,2013-02-11 02:21:00,
2013-02-10 18:31:00,47.0,41.0,30.33,North,360,14.0,16.0,79,-99.99,,,-99.99,,2013-02-11 02:31:00,
2013-02-10 18:41:00,47.0,41.0,30.33,North,360,14.0,16.0,79,-99.99,,,-99.99,,2013-02-11 02:41:00,
2013-02-10 18:52:00,47.0,41.0,30.33,North,360,14.0,16.0,79,-99.99,,,-99.99,,2013-02-11 02:52:00,
2013-02-10 19:00:00,46.0,40.0,30.33,North,10,13.0,16.0,79,-99.99,,,-99.99,,2013-02-11 03:00:00,
2013-02-10 19:21:00,46.0,40.0,30.33,North,10,13.0,16.0,79,-99.99,,,-99.99,,2013-02-11 03:21:00,
2013-02-10 19:31:00,46.0,40.0,30.33,North,10,13.0,16.0,79,-99.99,,,-99.99,,2013-02-11 03:31:00,
2013-02-10 19:41:00,46.0,40.0,30.33,North,10,13.0,16.0,79,-99.99,,,-99.99,,2013-02-11 03:41:00,
2013-02-10 19:51:00,46.0,40.0,30.33,North,10,13.0,16.0,79,-99.99,,,-99.99,,2013-02-11 03:51:00,
2013-02-10 20:00:00,47.0,41.0,30.33,North,350,16.0,18.0,80,-99.99,,,-99.99,,2013-02-11 04:00:00,
2013-02-10 20:21:00,47.0,41.0,30.33,North,350,16.0,18.0,80,-99.99,,,-99.99,,2013-02-11 04:21:00,
2013-02-10 20:31:00,47.0,41.0,30.33,North,350,16.0,18.0,80,-99.99,,,-99.99,,2013-02-11 04:31:00,
2013-02-10 20:41:00,47.0,41.0,30.33,North,350,16.0,18.0,80,-99.99,,,-99.99,,2013-02-11 04:41:00,
2013-02-10 20:51:00,47.0,41.0,30.33,North,350,16.0,18.0,80,-99.99,,,-99.99,,2013-02-11 04:51:00,
2013-02-10 21:00:00,47.0,40.0,30.34,NNE,20,9.0,9.0,77,-99.99,,,-99.99,,2013-02-11 05:00:00,
2013-02-10 21:11:00,47.0,40.0,30.34,NNE,20,9.0,9.0,77,-99.99,,,-99.99,,2013-02-11 05:11:00,
2013-02-10 21:22:00,47.0,40.0,30.34,NNE,20,9.0,9.0,77,-99.99,,,-99.99,,2013-02-11 05:22:00,
2013-02-10 21:31:00,47.0,40.0,30.34,NNE,20,9.0,9.0,77,-99.99,,,-99.99,,2013-02-11 05:31:00,
2013-02-10 21:41:00,47.0,40.0,30.34,NNE,20,9.0,9.0,77,-99.99,,,-99.99,,2013-02-11 05:41:00,
2013-02-10 21:52:00,47.0,40.0,30.34,NNE,20,9.0,9.0,77,-99.99,,,-99.99,,2013-02-11 05:52:00,
2013-02-10 22:00:00,46.0,39.0,30.34,NNE,30,9.0,13.0,76,-99.99,,,-99.99,,2013-02-11 06:00:00,
2013-02-10 22:21:00,46.0,39.0,30.34,NNE,30,9.0,13.0,76,-99.99,,,-99.99,,2013-02-11 06:21:00,
2013-02-10 22:31:00,46.0,39.0,30.34,NNE,30,9.0,13.0,76,-99.99,,,-99.99,,2013-02-11 06:31:00,
2013-02-10 22:41:00,46.0,39.0,30.34,NNE,30,9.0,13.0,76,-99.99,,,-99.99,,2013-02-11 06:41:00,
2013-02-10 22:51:00,46.0,39.0,30.34,NNE,30,9.0,13.0,76,-99.99,,,-99.99,,2013-02-11 06:51:00,
2013-02-10 23:00:00,45.0,39.0,30.34,NE,40,5.0,5.0,79,-99.99,,,-99.99,,2013-02-11 07:00:00,
2013-02-10 23:11:00,45.0,39.0,30.34,NE,40,5.0,5.0,79,-99.99,,,-99.99,,2013-02-11 07:11:00,
2013-02-10 23:21:00,45.0,39.0,30.34,NE,40,5.0,5.0,79,-99.99,,,-99.99,,2013-02-11 07:21:00,
2013-02-10 23:31:00,45.0,39.0,30.34,NE,40,5.0,5.0,79,-99.99,,,-99.99,,2013-02-11 07:31:00,
2013-02-10 23:41:00,45.0,39.0,30.34,NE,40,5.0,5.0,79,-99.99,,,-99.99,,2013-02-11 07:41:00,
2013-02-10 23:51:00,45.0,39.0,30.34,NE,40,5.0,5.0,79,-99.99,,,-99.99,,2013-02-11 07:51:00,